Time;durP1;ratioP1;P1;durP2;ratioP2;P2;SDS_P1;SDS_P2;PMS_P1;PMS_P2;Temp;Humidity;BMP_temperature;BMP_pressure;BME280_temperature;BME280_humidity;BME280_pressure;Samples;Min_cycle;Max_cycle;Signal;HPM_P1;HPM_P2
2022/12/30 00:00:26;;;;;;;;;;;9.00;99.90;;;;;;5006036;28;19919;-67
2022/12/30 00:02:51;;;;;;;;;;;9.00;99.90;;;;;;5016404;28;19962;-67
2022/12/30 00:05:17;;;;;;;;;;;9.00;99.90;;;;;;5005350;28;20403;-68
2022/12/30 00:07:42;;;;;;;;;;;9.10;99.90;;;;;;5011213;28;20252;-70
2022/12/30 00:10:08;;;;;;;;;;;9.20;99.90;;;;;;5019871;28;20725;-80
2022/12/30 00:34:55;;;;;;;;;;;9.80;99.90;;;;;;5029331;28;19935;-80
2022/12/30 00:37:20;;;;;;;;;;;9.70;99.90;;;;;;5037127;28;20011;-85
2022/12/30 00:39:46;;;;;;;;;;;9.70;99.90;;;;;;5017524;28;20397;-81
2022/12/30 00:44:55;;;;;;;;;;;9.80;99.90;;;;;;5017703;28;20045;-78
2022/12/30 00:47:21;;;;;;;;;;;9.90;99.90;;;;;;5011286;28;20540;-80
2022/12/30 00:57:59;;;;;;;;;;;9.80;99.90;;;;;;5033635;28;19973;-82
2022/12/30 01:00:24;;;;;;;;;;;9.80;99.90;;;;;;5021425;28;20287;-73
2022/12/30 01:02:50;;;;;;;;;;;9.70;99.90;;;;;;5027845;28;19935;-75
2022/12/30 01:05:15;;;;;;;;;;;9.70;99.90;;;;;;5009993;28;19917;-67
2022/12/30 01:07:41;;;;;;;;;;;9.50;99.90;;;;;;5010267;28;20354;-67
2022/12/30 01:10:06;;;;;;;;;;;9.30;99.90;;;;;;5009518;28;20283;-67
2022/12/30 01:12:32;;;;;;;;;;;9.10;99.90;;;;;;5010581;28;19920;-68
2022/12/30 01:14:58;;;;;;;;;;;9.00;99.90;;;;;;5007818;28;19970;-69
2022/12/30 01:17:26;;;;;;;;;;;8.90;99.90;;;;;;5010167;28;19998;-68
2022/12/30 01:19:51;;;;;;;;;;;8.80;99.90;;;;;;5009925;28;20368;-70
2022/12/30 01:22:17;;;;;;;;;;;8.80;99.90;;;;;;5014461;28;19913;-70
2022/12/30 01:24:42;;;;;;;;;;;8.60;99.90;;;;;;5014858;28;20321;-69
2022/12/30 01:27:08;;;;;;;;;;;8.60;99.90;;;;;;5007589;28;19971;-70
2022/12/30 01:29:37;;;;;;;;;;;8.50;99.90;;;;;;5009232;28;19924;-70
2022/12/30 01:32:04;;;;;;;;;;;8.50;99.90;;;;;;5009454;28;19910;-68
2022/12/30 01:34:29;;;;;;;;;;;8.50;99.90;;;;;;5015186;28;19913;-72
2022/12/30 01:36:55;;;;;;;;;;;8.50;99.90;;;;;;5010336;28;19921;-66
2022/12/30 01:39:20;;;;;;;;;;;8.40;99.90;;;;;;5006734;28;19917;-66
2022/12/30 01:41:46;;;;;;;;;;;8.50;99.90;;;;;;5009469;28;19976;-66
2022/12/30 01:44:30;;;;;;;;;;;8.40;99.90;;;;;;5011377;28;19913;-65
2022/12/30 01:46:56;;;;;;;;;;;8.40;99.90;;;;;;5012013;28;20241;-66
2022/12/30 01:49:21;;;;;;;;;;;8.40;99.90;;;;;;5009485;28;20204;-66
2022/12/30 01:51:47;;;;;;;;;;;8.40;99.90;;;;;;5011167;28;19913;-66
2022/12/30 01:54:12;;;;;;;;;;;8.30;99.90;;;;;;5014233;28;19944;-66
2022/12/30 01:56:39;;;;;;;;;;;8.30;99.90;;;;;;5015536;28;19913;-74
2022/12/30 01:59:08;;;;;;;;;;;8.30;99.90;;;;;;5007254;28;20004;-73
2022/12/30 02:01:34;;;;;;;;;;;8.30;99.90;;;;;;5010751;28;19984;-66
2022/12/30 02:04:01;;;;;;;;;;;8.30;99.90;;;;;;5009281;28;19905;-65
2022/12/30 02:06:31;;;;;;;;;;;8.30;99.90;;;;;;5008899;28;20423;-65
2022/12/30 02:08:58;;;;;;;;;;;8.20;99.90;;;;;;5014424;28;19917;-65
2022/12/30 02:11:23;;;;;;;;;;;8.10;99.90;;;;;;5008404;28;20330;-65
2022/12/30 02:13:49;;;;;;;;;;;8.20;99.90;;;;;;5009010;28;19909;-65
2022/12/30 02:16:26;;;;;;;;;;;8.10;99.90;;;;;;5007993;28;20007;-65
2022/12/30 02:19:10;;;;;;;;;;;8.10;99.90;;;;;;5008801;28;19917;-66
2022/12/30 02:21:53;;;;;;;;;;;8.10;99.90;;;;;;5012398;28;20046;-65
2022/12/30 02:24:27;;;;;;;;;;;8.10;99.90;;;;;;5007922;28;19931;-65
2022/12/30 02:27:05;;;;;;;;;;;8.10;99.90;;;;;;5009116;28;20315;-65
2022/12/30 02:29:49;;;;;;;;;;;8.10;99.90;;;;;;5013109;28;20665;-65
2022/12/30 02:32:32;;;;;;;;;;;8.10;99.90;;;;;;5006402;28;19917;-65
2022/12/30 02:35:15;;;;;;;;;;;8.10;99.90;;;;;;5008198;28;19993;-65
2022/12/30 02:37:43;;;;;;;;;;;8.10;99.90;;;;;;5013046;28;19932;-68
2022/12/30 02:40:11;;;;;;;;;;;8.10;99.90;;;;;;5008220;28;20588;-66
2022/12/30 02:45:33;;;;;;;;;;;8.00;99.90;;;;;;5009076;28;19920;-66
2022/12/30 02:48:04;;;;;;;;;;;8.10;99.90;;;;;;5008338;28;19936;-66
2022/12/30 02:53:18;;;;;;;;;;;8.10;99.90;;;;;;5010594;28;20467;-66
2022/12/30 02:55:44;;;;;;;;;;;8.20;99.90;;;;;;5007316;28;19971;-65
2022/12/30 02:58:09;;;;;;;;;;;8.20;99.90;;;;;;5030021;28;20362;-67
2022/12/30 03:03:59;;;;;;;;;;;8.20;99.90;;;;;;5009381;28;19920;-67
2022/12/30 03:06:43;;;;;;;;;;;8.10;99.90;;;;;;5005321;28;20026;-65
2022/12/30 03:09:15;;;;;;;;;;;8.00;99.90;;;;;;5007572;28;20007;-66
2022/12/30 03:11:59;;;;;;;;;;;8.00;99.90;;;;;;5005402;28;20375;-66
2022/12/30 03:14:25;;;;;;;;;;;8.00;99.90;;;;;;5014854;28;20370;-65
2022/12/30 03:16:53;;;;;;;;;;;7.90;99.90;;;;;;5008229;28;20012;-65
2022/12/30 03:19:20;;;;;;;;;;;7.90;99.90;;;;;;5016744;28;19917;-64
2022/12/30 03:21:47;;;;;;;;;;;7.90;99.90;;;;;;5007267;28;19913;-64
2022/12/30 03:27:05;;;;;;;;;;;7.80;99.90;;;;;;5005911;28;19922;-65
2022/12/30 03:29:43;;;;;;;;;;;7.70;99.90;;;;;;5006490;28;19917;-65
2022/12/30 03:32:10;;;;;;;;;;;7.70;99.90;;;;;;5013922;28;19913;-66
2022/12/30 03:34:36;;;;;;;;;;;7.80;99.90;;;;;;5012797;28;20331;-65
2022/12/30 03:37:37;;;;;;;;;;;7.70;99.90;;;;;;5007910;28;19913;-65
2022/12/30 03:40:06;;;;;;;;;;;7.70;99.90;;;;;;4995269;28;19921;-65
2022/12/30 03:42:32;;;;;;;;;;;7.70;99.90;;;;;;5004574;28;19913;-67
2022/12/30 03:44:58;;;;;;;;;;;7.60;99.90;;;;;;5012057;28;20414;-66
2022/12/30 03:47:24;;;;;;;;;;;7.70;99.90;;;;;;5007163;28;19935;-66
2022/12/30 03:49:49;;;;;;;;;;;7.80;99.90;;;;;;5007311;28;20288;-64
2022/12/30 03:52:15;;;;;;;;;;;7.80;99.90;;;;;;5007381;28;19913;-64
2022/12/30 03:54:41;;;;;;;;;;;7.90;99.90;;;;;;5008320;28;19916;-64
2022/12/30 03:57:07;;;;;;;;;;;7.80;99.90;;;;;;5006900;28;20015;-64
2022/12/30 03:59:32;;;;;;;;;;;7.80;99.90;;;;;;5008253;28;20372;-64
2022/12/30 04:01:58;;;;;;;;;;;7.80;99.90;;;;;;5009281;28;19976;-65
2022/12/30 04:04:23;;;;;;;;;;;7.90;99.90;;;;;;5011432;28;19913;-65
2022/12/30 04:06:49;;;;;;;;;;;7.90;99.90;;;;;;5006385;28;20375;-65
2022/12/30 04:09:14;;;;;;;;;;;7.90;99.90;;;;;;5006354;28;19928;-65
2022/12/30 04:11:39;;;;;;;;;;;7.80;99.90;;;;;;5008621;28;19914;-64
2022/12/30 04:14:05;;;;;;;;;;;7.70;99.90;;;;;;5007156;28;19914;-65
2022/12/30 04:16:30;;;;;;;;;;;7.60;99.90;;;;;;5011101;28;19974;-65
2022/12/30 04:18:56;;;;;;;;;;;7.60;99.90;;;;;;5020363;28;19985;-64
2022/12/30 04:21:21;;;;;;;;;;;7.60;99.90;;;;;;5008356;28;19917;-64
2022/12/30 04:23:47;;;;;;;;;;;7.60;99.90;;;;;;5015495;28;19924;-66
2022/12/30 04:26:12;;;;;;;;;;;7.50;99.90;;;;;;5010976;28;19909;-64
2022/12/30 04:28:37;;;;;;;;;;;7.50;99.90;;;;;;5009973;28;20380;-64
2022/12/30 04:31:03;;;;;;;;;;;7.50;99.90;;;;;;5010033;28;19913;-63
2022/12/30 04:33:29;;;;;;;;;;;7.40;99.90;;;;;;5009130;28;19919;-63
2022/12/30 04:35:54;;;;;;;;;;;7.40;99.90;;;;;;5010973;28;19913;-64
2022/12/30 04:38:19;;;;;;;;;;;7.40;99.90;;;;;;5015143;28;19994;-64
2022/12/30 04:40:45;;;;;;;;;;;7.40;99.90;;;;;;5010458;28;19913;-63
2022/12/30 04:43:10;;;;;;;;;;;7.30;99.90;;;;;;5010573;28;20638;-65
2022/12/30 04:45:36;;;;;;;;;;;7.30;99.90;;;;;;5008086;28;19917;-64
2022/12/30 04:48:01;;;;;;;;;;;7.40;99.90;;;;;;5010838;28;19913;-64
2022/12/30 04:50:26;;;;;;;;;;;7.40;99.90;;;;;;5015084;28;19913;-65
2022/12/30 04:52:52;;;;;;;;;;;7.40;99.90;;;;;;5009272;28;20032;-65
2022/12/30 04:55:17;;;;;;;;;;;7.40;99.90;;;;;;5008553;28;20620;-64
2022/12/30 04:57:43;;;;;;;;;;;7.40;99.90;;;;;;5018783;28;19917;-66
2022/12/30 05:00:09;;;;;;;;;;;7.40;99.90;;;;;;5013494;28;19921;-66
2022/12/30 05:02:35;;;;;;;;;;;7.40;99.90;;;;;;5010033;28;19967;-64
2022/12/30 05:05:01;;;;;;;;;;;7.30;99.90;;;;;;5009758;28;19913;-64
2022/12/30 05:07:26;;;;;;;;;;;7.30;99.90;;;;;;5014271;28;19913;-65
2022/12/30 05:09:52;;;;;;;;;;;7.30;99.90;;;;;;5009763;28;20569;-65
2022/12/30 05:12:17;;;;;;;;;;;7.20;99.90;;;;;;5014999;28;19959;-65
2022/12/30 05:14:43;;;;;;;;;;;7.20;99.90;;;;;;5012932;28;20526;-65
2022/12/30 05:17:08;;;;;;;;;;;7.20;99.90;;;;;;5008586;28;19913;-65
2022/12/30 05:19:33;;;;;;;;;;;7.10;99.90;;;;;;5008793;28;19920;-65
2022/12/30 05:21:59;;;;;;;;;;;7.10;99.90;;;;;;5008815;28;19967;-65
2022/12/30 05:27:08;;;;;;;;;;;7.10;99.90;;;;;;5020299;28;19931;-66
2022/12/30 05:29:34;;;;;;;;;;;7.10;99.90;;;;;;5009533;28;19917;-65
2022/12/30 05:31:59;;;;;;;;;;;7.00;99.90;;;;;;5009438;28;20419;-65
2022/12/30 05:34:24;;;;;;;;;;;6.90;99.90;;;;;;5007365;28;20464;-65
2022/12/30 05:36:50;;;;;;;;;;;6.90;99.90;;;;;;5009076;28;19913;-66
2022/12/30 05:39:15;;;;;;;;;;;6.90;99.90;;;;;;5009914;28;20134;-65
2022/12/30 05:41:41;;;;;;;;;;;6.80;99.90;;;;;;5008649;28;19924;-65
2022/12/30 05:44:06;;;;;;;;;;;6.80;99.90;;;;;;5010648;28;19920;-64
2022/12/30 05:46:32;;;;;;;;;;;6.70;99.90;;;;;;5014326;28;19994;-66
2022/12/30 05:48:57;;;;;;;;;;;6.70;99.90;;;;;;5008815;28;19953;-64
2022/12/30 05:51:23;;;;;;;;;;;6.60;99.90;;;;;;5014507;28;19995;-66
2022/12/30 05:53:48;;;;;;;;;;;6.60;99.90;;;;;;5009232;28;19996;-65
2022/12/30 05:56:14;;;;;;;;;;;6.50;99.90;;;;;;5009611;28;20278;-64
2022/12/30 05:58:39;;;;;;;;;;;6.50;99.90;;;;;;5008561;28;19921;-65
2022/12/30 06:01:05;;;;;;;;;;;6.40;99.90;;;;;;5006346;28;20021;-65
2022/12/30 06:03:30;;;;;;;;;;;6.40;99.90;;;;;;5010286;28;19909;-65
2022/12/30 06:05:59;;;;;;;;;;;6.30;99.90;;;;;;5010726;28;19914;-65
2022/12/30 06:08:24;;;;;;;;;;;6.30;99.90;;;;;;5006660;28;20309;-64
2022/12/30 06:10:50;;;;;;;;;;;6.20;99.90;;;;;;5006400;28;19913;-65
2022/12/30 06:13:15;;;;;;;;;;;6.10;99.90;;;;;;5009149;28;20430;-66
2022/12/30 06:15:41;;;;;;;;;;;6.10;99.90;;;;;;5008781;28;19949;-66
2022/12/30 06:18:06;;;;;;;;;;;6.10;99.90;;;;;;5008380;28;19925;-66
2022/12/30 06:20:35;;;;;;;;;;;6.10;99.90;;;;;;5008451;28;20004;-65
2022/12/30 06:23:00;;;;;;;;;;;6.10;99.90;;;;;;5007013;28;19967;-66
2022/12/30 06:25:26;;;;;;;;;;;6.10;99.90;;;;;;5016185;28;19913;-66
2022/12/30 06:27:51;;;;;;;;;;;6.00;99.90;;;;;;5007679;28;20435;-66
2022/12/30 06:30:17;;;;;;;;;;;6.00;99.90;;;;;;5015211;28;20370;-66
2022/12/30 06:32:42;;;;;;;;;;;5.90;99.90;;;;;;5010145;28;20028;-66
2022/12/30 06:35:08;;;;;;;;;;;5.90;99.90;;;;;;5007779;28;20358;-66
2022/12/30 06:37:34;;;;;;;;;;;5.90;99.90;;;;;;5005233;28;19964;-66
2022/12/30 06:39:59;;;;;;;;;;;5.90;99.90;;;;;;5007807;28;19924;-65
2022/12/30 06:42:25;;;;;;;;;;;5.90;99.90;;;;;;5008449;28;19921;-66
2022/12/30 06:44:50;;;;;;;;;;;5.90;99.90;;;;;;5008726;28;19924;-66
2022/12/30 06:47:16;;;;;;;;;;;5.80;99.90;;;;;;5008685;28;19920;-66
2022/12/30 06:49:41;;;;;;;;;;;5.80;99.90;;;;;;5008444;28;19913;-66
2022/12/30 06:52:06;;;;;;;;;;;5.80;99.90;;;;;;5008219;28;19920;-65
2022/12/30 06:54:32;;;;;;;;;;;5.80;99.90;;;;;;5009414;28;19913;-66
2022/12/30 06:56:57;;;;;;;;;;;5.80;99.90;;;;;;5011853;28;19912;-65
2022/12/30 06:59:23;;;;;;;;;;;5.80;99.90;;;;;;5007345;28;19959;-62
2022/12/30 07:01:48;;;;;;;;;;;5.80;99.90;;;;;;5007360;28;20363;-66
2022/12/30 07:04:14;;;;;;;;;;;5.80;99.90;;;;;;5009541;28;19920;-66
2022/12/30 07:06:39;;;;;;;;;;;5.80;99.90;;;;;;5006766;28;19992;-66
2022/12/30 07:09:04;;;;;;;;;;;5.70;99.90;;;;;;5009808;28;19917;-65
2022/12/30 07:11:30;;;;;;;;;;;5.70;99.90;;;;;;5008003;28;19913;-66
2022/12/30 07:13:55;;;;;;;;;;;5.60;99.90;;;;;;5008225;28;19918;-65
2022/12/30 07:16:21;;;;;;;;;;;5.60;99.90;;;;;;5012305;28;19913;-65
2022/12/30 07:18:46;;;;;;;;;;;5.60;99.90;;;;;;5012290;28;19917;-64
2022/12/30 07:21:11;;;;;;;;;;;5.60;99.90;;;;;;5007559;28;20326;-64
2022/12/30 07:23:37;;;;;;;;;;;5.50;99.90;;;;;;5005269;28;20323;-64
2022/12/30 07:26:02;;;;;;;;;;;5.50;99.90;;;;;;5006817;28;19995;-64
2022/12/30 07:28:28;;;;;;;;;;;5.50;99.90;;;;;;5006463;28;19917;-64
2022/12/30 07:30:53;;;;;;;;;;;5.50;99.90;;;;;;5010307;28;19913;-64
2022/12/30 07:33:19;;;;;;;;;;;5.40;99.90;;;;;;5008474;28;19966;-64
2022/12/30 07:35:44;;;;;;;;;;;5.50;99.90;;;;;;5005133;28;20028;-64
2022/12/30 07:38:09;;;;;;;;;;;5.50;99.90;;;;;;5012307;28;19967;-64
2022/12/30 07:40:36;;;;;;;;;;;5.50;99.90;;;;;;5012914;28;19924;-64
2022/12/30 07:43:02;;;;;;;;;;;5.50;99.90;;;;;;5007548;28;20559;-64
2022/12/30 07:45:27;;;;;;;;;;;5.50;99.90;;;;;;5011160;28;19912;-65
2022/12/30 07:47:53;;;;;;;;;;;5.50;99.90;;;;;;5011952;28;19913;-65
2022/12/30 07:50:18;;;;;;;;;;;5.50;99.90;;;;;;5005497;28;19945;-64
2022/12/30 07:52:44;;;;;;;;;;;5.50;99.90;;;;;;5006153;28;19913;-65
2022/12/30 07:55:09;;;;;;;;;;;5.50;99.90;;;;;;5009819;28;19919;-65
2022/12/30 07:57:34;;;;;;;;;;;5.60;99.90;;;;;;5012044;28;20000;-64
2022/12/30 08:00:01;;;;;;;;;;;5.50;99.90;;;;;;5013359;28;19925;-68
2022/12/30 08:02:27;;;;;;;;;;;5.50;99.90;;;;;;5008737;28;20316;-65
2022/12/30 08:04:52;;;;;;;;;;;5.60;99.90;;;;;;5006493;28;19993;-65
2022/12/30 08:07:18;;;;;;;;;;;5.50;99.90;;;;;;5010911;28;19920;-66
2022/12/30 08:09:43;;;;;;;;;;;5.50;99.90;;;;;;5013801;28;20493;-66
2022/12/30 08:12:09;;;;;;;;;;;5.60;99.90;;;;;;5014169;28;19916;-66
2022/12/30 08:14:34;;;;;;;;;;;5.70;99.90;;;;;;5012171;28;20012;-66
2022/12/30 08:17:00;;;;;;;;;;;5.60;99.90;;;;;;5014276;28;19913;-66
2022/12/30 08:19:27;;;;;;;;;;;5.70;99.90;;;;;;5013521;28;20122;-70
2022/12/30 08:21:52;;;;;;;;;;;5.70;99.90;;;;;;5014690;28;19909;-67
2022/12/30 08:24:18;;;;;;;;;;;5.80;99.90;;;;;;5016460;28;19913;-66
2022/12/30 08:26:43;;;;;;;;;;;5.80;99.90;;;;;;5013547;28;19935;-67
2022/12/30 08:29:08;;;;;;;;;;;5.80;99.90;;;;;;5010440;28;19912;-66
2022/12/30 08:31:34;;;;;;;;;;;5.80;99.90;;;;;;5015361;28;19920;-68
2022/12/30 08:33:59;;;;;;;;;;;5.80;99.90;;;;;;5011217;28;19956;-72
2022/12/30 08:36:26;;;;;;;;;;;5.90;99.90;;;;;;5007723;28;19924;-74
2022/12/30 08:38:53;;;;;;;;;;;6.00;99.90;;;;;;5006933;28;20351;-74
2022/12/30 08:41:21;;;;;;;;;;;6.20;99.90;;;;;;5005639;28;19913;-74
2022/12/30 08:43:47;;;;;;;;;;;6.30;99.90;;;;;;5015993;28;19920;-74
2022/12/30 08:46:13;;;;;;;;;;;6.40;99.90;;;;;;5013784;28;19923;-74
2022/12/30 08:48:38;;;;;;;;;;;6.40;99.90;;;;;;5013516;28;20303;-74
2022/12/30 08:51:04;;;;;;;;;;;6.40;99.90;;;;;;5015800;28;19995;-74
2022/12/30 08:53:30;;;;;;;;;;;6.50;99.90;;;;;;5004991;28;19913;-77
2022/12/30 08:56:21;;;;;;;;;;;6.50;99.90;;;;;;5006870;28;19914;-77
2022/12/30 08:58:46;;;;;;;;;;;6.40;99.90;;;;;;5001950;28;19924;-77
2022/12/30 09:01:13;;;;;;;;;;;6.30;99.90;;;;;;5006296;28;19913;-76
2022/12/30 09:03:39;;;;;;;;;;;6.30;99.90;;;;;;5009732;28;20351;-74
2022/12/30 09:06:05;;;;;;;;;;;6.20;99.90;;;;;;5009417;28;19913;-70
2022/12/30 09:08:31;;;;;;;;;;;6.30;99.90;;;;;;5009156;28;19921;-73
2022/12/30 09:11:00;;;;;;;;;;;6.20;99.90;;;;;;5017582;28;19950;-75
2022/12/30 09:13:29;;;;;;;;;;;6.30;99.90;;;;;;5015022;28;19913;-70
2022/12/30 09:15:54;;;;;;;;;;;6.30;99.90;;;;;;5013551;28;19959;-74
2022/12/30 09:18:20;;;;;;;;;;;6.30;99.90;;;;;;5009141;28;20328;-73
2022/12/30 09:20:45;;;;;;;;;;;6.40;99.90;;;;;;5010172;28;19913;-73
2022/12/30 09:23:11;;;;;;;;;;;6.40;99.90;;;;;;5012707;28;20295;-73
2022/12/30 09:25:36;;;;;;;;;;;6.40;99.90;;;;;;5010452;28;20250;-73
2022/12/30 09:28:02;;;;;;;;;;;6.50;99.90;;;;;;5016506;28;19909;-73
2022/12/30 09:30:27;;;;;;;;;;;6.50;99.90;;;;;;5015595;28;19920;-73
2022/12/30 09:32:53;;;;;;;;;;;6.60;99.90;;;;;;5015252;28;20378;-73
2022/12/30 09:35:18;;;;;;;;;;;6.70;99.90;;;;;;5009359;28;20265;-73
2022/12/30 09:37:44;;;;;;;;;;;6.70;99.90;;;;;;5009425;28;20244;-73
2022/12/30 09:40:13;;;;;;;;;;;6.80;99.90;;;;;;5013678;28;19909;-73
2022/12/30 09:45:31;;;;;;;;;;;6.90;99.90;;;;;;5022850;28;20696;-72
2022/12/30 09:47:59;;;;;;;;;;;6.90;99.90;;;;;;5017377;28;20242;-72
2022/12/30 09:50:31;;;;;;;;;;;7.00;99.90;;;;;;5016285;28;19917;-73
2022/12/30 09:53:03;;;;;;;;;;;7.00;99.90;;;;;;5018010;28;19917;-73
2022/12/30 09:55:31;;;;;;;;;;;7.10;99.90;;;;;;5012484;28;19913;-72
2022/12/30 09:58:02;;;;;;;;;;;7.10;99.90;;;;;;5027902;28;19990;-73
2022/12/30 10:00:29;;;;;;;;;;;7.20;99.90;;;;;;5018687;28;19919;-72
2022/12/30 10:03:04;;;;;;;;;;;7.30;99.90;;;;;;5019155;28;19920;-72
2022/12/30 10:05:47;;;;;;;;;;;7.40;99.90;;;;;;5014930;28;19909;-72
2022/12/30 10:08:19;;;;;;;;;;;7.50;99.90;;;;;;5013651;28;19928;-72
2022/12/30 10:10:48;;;;;;;;;;;7.60;99.90;;;;;;5010767;28;20063;-73
2022/12/30 10:13:25;;;;;;;;;;;7.60;99.90;;;;;;5014633;28;20289;-73
2022/12/30 10:15:55;;;;;;;;;;;7.70;99.90;;;;;;5013713;28;20361;-73
2022/12/30 10:18:47;;;;;;;;;;;7.80;99.90;;;;;;5006427;28;19992;-72
2022/12/30 10:21:14;;;;;;;;;;;7.80;99.90;;;;;;5012485;28;20441;-72
2022/12/30 10:23:55;;;;;;;;;;;7.90;99.90;;;;;;5012749;28;19913;-72
2022/12/30 10:26:22;;;;;;;;;;;8.00;99.90;;;;;;5008121;28;19916;-71
2022/12/30 10:28:58;;;;;;;;;;;8.10;99.90;;;;;;5010989;28;19933;-73
2022/12/30 10:31:24;;;;;;;;;;;8.20;99.90;;;;;;5012851;28;19917;-72
2022/12/30 10:33:52;;;;;;;;;;;8.30;99.90;;;;;;5016921;28;19973;-72
2022/12/30 10:36:34;;;;;;;;;;;8.40;99.90;;;;;;5007308;28;19920;-72
2022/12/30 10:39:06;;;;;;;;;;;8.50;99.90;;;;;;5006901;28;19913;-72
2022/12/30 10:41:37;;;;;;;;;;;8.60;99.90;;;;;;5012501;28;20416;-72
2022/12/30 10:44:29;;;;;;;;;;;8.70;99.90;;;;;;5022345;28;20285;-73
2022/12/30 10:47:14;;;;;;;;;;;8.80;99.90;;;;;;5007972;28;20008;-73
2022/12/30 10:50:01;;;;;;;;;;;8.90;99.90;;;;;;5008870;28;19917;-73
2022/12/30 10:52:27;;;;;;;;;;;8.90;99.90;;;;;;5021241;28;19915;-72
2022/12/30 10:54:52;;;;;;;;;;;9.00;99.90;;;;;;5018347;28;19913;-73
2022/12/30 10:57:21;;;;;;;;;;;9.10;99.90;;;;;;5011550;28;20371;-72
2022/12/30 10:59:47;;;;;;;;;;;9.10;99.90;;;;;;5017008;28;19923;-72
2022/12/30 11:02:23;;;;;;;;;;;9.10;99.90;;;;;;5012839;28;20270;-72
2022/12/30 11:04:49;;;;;;;;;;;9.10;99.90;;;;;;5006248;28;20095;-72
2022/12/30 11:07:15;;;;;;;;;;;9.20;99.90;;;;;;5010302;28;20415;-73
2022/12/30 11:09:41;;;;;;;;;;;9.30;99.90;;;;;;5006702;28;19970;-73
2022/12/30 11:15:16;;;;;;;;;;;9.50;99.90;;;;;;5015046;28;19920;-72
2022/12/30 11:17:50;;;;;;;;;;;9.60;99.90;;;;;;5010701;28;19913;-72
2022/12/30 11:20:15;;;;;;;;;;;9.60;99.90;;;;;;5014131;28;19913;-72
2022/12/30 11:22:48;;;;;;;;;;;9.70;99.90;;;;;;5009346;28;19935;-72
2022/12/30 11:25:16;;;;;;;;;;;9.70;99.90;;;;;;5004620;28;20071;-73
2022/12/30 11:27:44;;;;;;;;;;;9.60;99.90;;;;;;5007464;28;19914;-73
2022/12/30 11:30:27;;;;;;;;;;;9.70;99.90;;;;;;5007207;28;19921;-73
2022/12/30 11:32:54;;;;;;;;;;;9.70;99.90;;;;;;5010374;28;19913;-73
2022/12/30 11:35:36;;;;;;;;;;;9.70;99.90;;;;;;5006226;28;19920;-74
2022/12/30 11:38:03;;;;;;;;;;;9.80;99.90;;;;;;5005382;28;19913;-72
2022/12/30 11:40:31;;;;;;;;;;;9.90;99.90;;;;;;5007346;28;20225;-72
2022/12/30 11:43:23;;;;;;;;;;;9.80;99.90;;;;;;5005899;28;19921;-72
2022/12/30 11:45:58;;;;;;;;;;;9.80;99.90;;;;;;5005286;28;19945;-72
2022/12/30 11:48:28;;;;;;;;;;;9.90;99.90;;;;;;5006874;28;19917;-72
2022/12/30 11:50:53;;;;;;;;;;;10.00;99.90;;;;;;5011520;28;19909;-73
2022/12/30 11:53:20;;;;;;;;;;;10.30;99.90;;;;;;5008779;28;19913;-73
2022/12/30 11:55:50;;;;;;;;;;;10.50;99.90;;;;;;5013147;28;19916;-73
2022/12/30 11:58:16;;;;;;;;;;;10.50;99.90;;;;;;5016713;28;19923;-73
2022/12/30 12:00:41;;;;;;;;;;;10.60;99.90;;;;;;5005982;28;20319;-73
2022/12/30 12:03:14;;;;;;;;;;;10.80;99.90;;;;;;5007914;28;19913;-73
2022/12/30 12:05:42;;;;;;;;;;;11.00;99.90;;;;;;5011853;28;19917;-73
2022/12/30 12:08:14;;;;;;;;;;;11.00;99.90;;;;;;5010298;28;19932;-73
2022/12/30 12:10:40;;;;;;;;;;;11.00;99.90;;;;;;5012114;28;19943;-73
2022/12/30 12:13:24;;;;;;;;;;;11.10;99.90;;;;;;5011182;28;20304;-72
2022/12/30 12:15:51;;;;;;;;;;;11.00;99.90;;;;;;5008978;28;20023;-73
2022/12/30 12:18:28;;;;;;;;;;;10.80;99.90;;;;;;5008881;28;19923;-72
2022/12/30 12:20:59;;;;;;;;;;;10.50;99.90;;;;;;5011070;28;19991;-73
2022/12/30 12:23:37;;;;;;;;;;;10.10;99.90;;;;;;5009951;28;19913;-73
2022/12/30 12:26:02;;;;;;;;;;;10.10;99.90;;;;;;5007833;28;19932;-73
2022/12/30 12:28:29;;;;;;;;;;;10.00;99.90;;;;;;5019632;28;19913;-73
2022/12/30 12:31:09;;;;;;;;;;;9.90;99.90;;;;;;5004522;28;19909;-73
2022/12/30 12:33:46;;;;;;;;;;;9.90;99.90;;;;;;5007858;28;19976;-72
2022/12/30 12:36:16;;;;;;;;;;;9.80;99.90;;;;;;5013858;28;19951;-73
2022/12/30 12:39:00;;;;;;;;;;;9.80;99.90;;;;;;5020056;28;20358;-73
2022/12/30 12:41:28;;;;;;;;;;;10.00;99.90;;;;;;5011249;28;19909;-73
2022/12/30 12:43:53;;;;;;;;;;;10.00;99.90;;;;;;5011055;28;19913;-73
2022/12/30 12:46:28;;;;;;;;;;;10.10;99.90;;;;;;5010700;28;19909;-73
2022/12/30 12:49:01;;;;;;;;;;;10.20;99.90;;;;;;5006386;28;20088;-72
2022/12/30 12:51:38;;;;;;;;;;;10.20;99.90;;;;;;5020143;28;20344;-73
2022/12/30 12:54:32;;;;;;;;;;;10.20;99.90;;;;;;5016228;28;20471;-73
2022/12/30 12:57:03;;;;;;;;;;;10.20;99.90;;;;;;5011410;28;19913;-72
2022/12/30 12:59:34;;;;;;;;;;;10.40;99.90;;;;;;5014300;28;20327;-73
2022/12/30 13:02:05;;;;;;;;;;;10.50;99.90;;;;;;5008210;28;20326;-73
2022/12/30 13:04:46;;;;;;;;;;;10.60;99.90;;;;;;5018385;28;19966;-73
2022/12/30 13:07:30;;;;;;;;;;;10.60;99.90;;;;;;5009488;28;20009;-72
2022/12/30 13:10:15;;;;;;;;;;;10.40;99.90;;;;;;5013854;28;19928;-72
2022/12/30 13:12:43;;;;;;;;;;;10.20;99.90;;;;;;5019322;28;19997;-72
2022/12/30 13:15:21;;;;;;;;;;;10.00;99.90;;;;;;5009079;28;19913;-72
2022/12/30 13:17:48;;;;;;;;;;;10.00;99.90;;;;;;5009153;28;19909;-72
2022/12/30 13:20:16;;;;;;;;;;;9.90;99.90;;;;;;5010060;28;19920;-72
2022/12/30 13:22:42;;;;;;;;;;;9.90;99.90;;;;;;5016415;28;20213;-72
2022/12/30 13:25:13;;;;;;;;;;;9.80;99.90;;;;;;5014899;28;19989;-73
2022/12/30 13:27:40;;;;;;;;;;;9.70;99.90;;;;;;5008214;28;20066;-71
2022/12/30 13:30:06;;;;;;;;;;;9.70;99.90;;;;;;5009785;28;19995;-71
2022/12/30 13:32:40;;;;;;;;;;;9.70;99.90;;;;;;5009906;28;19917;-71
2022/12/30 13:35:24;;;;;;;;;;;9.70;99.90;;;;;;5010509;28;19920;-75
2022/12/30 13:37:53;;;;;;;;;;;9.80;99.90;;;;;;5022755;28;20284;-71
2022/12/30 13:40:21;;;;;;;;;;;9.80;99.90;;;;;;5013721;28;19913;-71
2022/12/30 13:42:57;;;;;;;;;;;9.90;99.90;;;;;;5015152;28;20324;-72
2022/12/30 13:45:24;;;;;;;;;;;9.90;99.90;;;;;;5018074;28;19967;-73
2022/12/30 13:48:02;;;;;;;;;;;10.00;99.90;;;;;;5017555;28;19967;-72
2022/12/30 13:50:28;;;;;;;;;;;10.10;99.90;;;;;;5017114;28;19925;-71
2022/12/30 13:52:55;;;;;;;;;;;10.10;99.90;;;;;;5017596;28;19971;-70
2022/12/30 13:55:32;;;;;;;;;;;10.10;99.90;;;;;;5018022;28;19963;-70
2022/12/30 13:58:05;;;;;;;;;;;10.10;99.90;;;;;;5016213;28;20382;-70
2022/12/30 14:00:35;;;;;;;;;;;10.00;99.90;;;;;;5018721;28;19913;-70
2022/12/30 14:03:02;;;;;;;;;;;10.00;99.90;;;;;;5018152;28;19919;-70
2022/12/30 14:05:29;;;;;;;;;;;10.00;99.90;;;;;;5017093;28;19964;-70
2022/12/30 14:07:54;;;;;;;;;;;10.00;99.90;;;;;;5017861;28;19916;-69
2022/12/30 14:10:22;;;;;;;;;;;10.00;99.90;;;;;;5017796;28;20287;-73
2022/12/30 14:13:06;;;;;;;;;;;9.90;99.90;;;;;;5017975;28;20410;-72
2022/12/30 14:15:50;;;;;;;;;;;9.80;99.90;;;;;;5017761;28;20407;-72
2022/12/30 14:18:18;;;;;;;;;;;9.70;99.90;;;;;;5009215;28;19914;-72
2022/12/30 14:20:54;;;;;;;;;;;9.70;99.90;;;;;;5008617;28;19909;-72
2022/12/30 14:23:49;;;;;;;;;;;9.60;99.90;;;;;;5014733;28;19909;-68
2022/12/30 14:26:18;;;;;;;;;;;9.50;99.90;;;;;;5008527;28;19913;-69
2022/12/30 14:28:56;;;;;;;;;;;9.40;99.90;;;;;;5006919;28;19913;-71
2022/12/30 14:31:26;;;;;;;;;;;9.40;99.90;;;;;;5009679;28;19921;-70
2022/12/30 14:33:52;;;;;;;;;;;9.30;99.90;;;;;;5017689;28;19959;-70
2022/12/30 14:36:19;;;;;;;;;;;9.30;99.90;;;;;;5015862;28;19959;-68
2022/12/30 14:38:54;;;;;;;;;;;9.20;99.90;;;;;;5012803;28;19920;-70
2022/12/30 14:41:35;;;;;;;;;;;9.20;99.90;;;;;;5018737;28;19913;-70
2022/12/30 14:44:02;;;;;;;;;;;9.10;99.90;;;;;;5018213;28;19917;-69
2022/12/30 14:46:30;;;;;;;;;;;9.10;99.90;;;;;;5013315;28;19913;-70
2022/12/30 14:49:00;;;;;;;;;;;9.00;99.90;;;;;;5009484;28;19917;-70
2022/12/30 14:51:26;;;;;;;;;;;9.00;99.90;;;;;;5007688;28;19935;-72
2022/12/30 14:53:59;;;;;;;;;;;8.90;99.90;;;;;;5007930;28;19913;-71
2022/12/30 14:56:25;;;;;;;;;;;8.90;99.90;;;;;;5006352;28;19940;-73
2022/12/30 14:58:51;;;;;;;;;;;8.90;99.90;;;;;;5006964;28;19917;-71
2022/12/30 15:01:18;;;;;;;;;;;8.80;99.90;;;;;;5017972;28;20288;-76
2022/12/30 15:03:44;;;;;;;;;;;8.80;99.90;;;;;;5010894;28;20342;-76
2022/12/30 15:06:10;;;;;;;;;;;8.70;99.90;;;;;;5013631;28;20401;-78
2022/12/30 15:08:36;;;;;;;;;;;8.70;99.90;;;;;;5016172;28;20000;-77
2022/12/30 15:11:08;;;;;;;;;;;8.70;99.90;;;;;;5015322;28;19913;-76
2022/12/30 15:14:00;;;;;;;;;;;8.60;99.90;;;;;;5015267;28;20316;-78
2022/12/30 15:16:27;;;;;;;;;;;8.60;99.90;;;;;;5010805;28;19913;-77
2022/12/30 15:18:59;;;;;;;;;;;8.50;99.90;;;;;;5010140;28;20076;-76
2022/12/30 15:21:32;;;;;;;;;;;8.50;99.90;;;;;;5017264;28;20382;-76
2022/12/30 15:24:00;;;;;;;;;;;8.40;99.90;;;;;;5008435;28;20201;-80
2022/12/30 15:26:28;;;;;;;;;;;8.40;99.90;;;;;;5009315;28;19964;-76
2022/12/30 15:28:54;;;;;;;;;;;8.30;99.90;;;;;;5006996;28;20019;-77
2022/12/30 15:31:25;;;;;;;;;;;8.30;99.90;;;;;;5012295;28;20408;-78